Time;durP1;ratioP1;P1;durP2;ratioP2;P2;SDS_P1;SDS_P2;PMS_P1;PMS_P2;Temp;Humidity;BMP_temperature;BMP_pressure;BME280_temperature;BME280_humidity;BME280_pressure;Samples;Min_cycle;Max_cycle;Signal;HPM_P1;HPM_P2
2023/05/04 00:00:10;;;;;;;;;;;;;;;19.96;44.10;96149.41;10236604;28;2036;-68
2023/05/04 00:05:11;;;;;;;;;;;;;;;19.95;44.31;96147.00;10234285;28;1888;-69
2023/05/04 00:10:11;;;;;;;;;;;;;;;19.94;44.32;96143.59;10234332;28;1978;-69
2023/05/04 00:15:11;;;;;;;;;;;;;;;19.94;44.06;96143.59;10242930;28;2127;-69
2023/05/04 00:20:12;;;;;;;;;;;;;;;19.92;44.07;96137.81;10248930;28;1871;-68
2023/05/04 00:25:12;;;;;;;;;;;;;;;19.92;44.07;96137.81;10238447;28;2000;-69
2023/05/04 00:30:13;;;;;;;;;;;;;;;19.91;44.05;96124.91;10235080;28;1922;-69
2023/05/04 00:35:13;;;;;;;;;;;;;;;19.90;44.03;96126.75;10235368;28;2104;-67
2023/05/04 00:40:13;;;;;;;;;;;;;;;19.90;44.06;96124.13;10233281;28;2108;-68
2023/05/04 00:45:14;;;;;;;;;;;;;;;19.88;44.12;96118.34;10233679;28;1948;-69
2023/05/04 00:50:15;;;;;;;;;;;;;;;19.89;44.24;96121.72;10231835;28;4971;-69
2023/05/04 00:55:15;;;;;;;;;;;;;;;19.88;44.22;96117.53;10229778;28;2119;-67
2023/05/04 01:00:15;;;;;;;;;;;;;;;19.88;44.26;96114.91;10229765;28;2314;-67
2023/05/04 01:05:16;;;;;;;;;;;;;;;19.88;44.10;96120.16;10247720;28;1838;-67
2023/05/04 01:10:22;;;;;;;;;;;;;;;19.86;44.01;96117.81;10228796;28;1950;-67
2023/05/04 01:15:22;;;;;;;;;;;;;;;19.85;43.88;96116.22;10240094;28;2289;-68
2023/05/04 01:20:23;;;;;;;;;;;;;;;19.86;44.13;96119.63;10214433;28;2196;-67
2023/05/04 01:25:23;;;;;;;;;;;;;;;19.84;43.93;96113.84;10237873;28;2116;-67
2023/05/04 01:30:28;;;;;;;;;;;;;;;19.85;44.16;96120.69;10230138;28;1966;-67
2023/05/04 01:35:29;;;;;;;;;;;;;;;19.84;43.87;96119.09;10210401;28;2144;-67
2023/05/04 01:40:29;;;;;;;;;;;;;;;19.83;43.98;96114.88;10233312;28;2021;-68
2023/05/04 01:45:29;;;;;;;;;;;;;;;19.82;43.96;96114.13;10235676;28;2116;-68
2023/05/04 01:50:29;;;;;;;;;;;;;;;19.82;43.81;96110.69;10237839;28;4854;-67
2023/05/04 01:55:30;;;;;;;;;;;;;;;19.81;43.79;96112.53;10237821;28;1989;-67
2023/05/04 02:00:30;;;;;;;;;;;;;;;19.80;43.92;96113.59;10241838;28;1969;-67
2023/05/04 02:05:30;;;;;;;;;;;;;;;19.79;43.94;96108.56;10238187;28;2056;-67
2023/05/04 02:10:31;;;;;;;;;;;;;;;19.79;43.75;96111.19;10235096;28;2186;-67
2023/05/04 02:15:31;;;;;;;;;;;;;;;19.79;43.75;96106.72;10232771;28;2038;-68
2023/05/04 02:20:31;;;;;;;;;;;;;;;19.78;43.76;96113.06;10235689;28;2096;-68
2023/05/04 02:25:32;;;;;;;;;;;;;;;19.77;43.92;96114.09;10235399;28;2067;-67
2023/05/04 02:30:32;;;;;;;;;;;;;;;19.77;43.67;96108.81;10233939;28;1968;-67
2023/05/04 02:35:32;;;;;;;;;;;;;;;19.76;43.67;96107.25;10234683;28;2166;-67
2023/05/04 02:40:32;;;;;;;;;;;;;;;19.76;43.88;96107.25;10233137;28;1981;-68
2023/05/04 02:45:33;;;;;;;;;;;;;;;19.76;43.64;96106.47;10235274;28;1959;-68
2023/05/04 02:50:33;;;;;;;;;;;;;;;19.76;43.86;96114.34;10234672;28;4877;-68
2023/05/04 02:55:34;;;;;;;;;;;;;;;19.74;43.53;96111.97;10235115;28;1977;-69
2023/05/04 03:00:34;;;;;;;;;;;;;;;19.74;43.58;96108.56;10235874;28;1961;-68
2023/05/04 03:05:34;;;;;;;;;;;;;;;19.72;43.43;96111.44;10234237;28;2186;-68
2023/05/04 03:10:35;;;;;;;;;;;;;;;19.72;43.39;96102.78;10231974;28;2117;-69
2023/05/04 03:15:35;;;;;;;;;;;;;;;19.73;43.65;96109.59;10235281;28;2147;-67
2023/05/04 03:20:35;;;;;;;;;;;;;;;19.73;43.38;96109.59;10234826;28;1994;-67
2023/05/04 03:25:36;;;;;;;;;;;;;;;19.70;43.57;96103.00;10237511;28;2159;-69
2023/05/04 03:30:36;;;;;;;;;;;;;;;19.71;43.48;96109.88;10236858;28;1977;-68
2023/05/04 03:35:36;;;;;;;;;;;;;;;19.70;43.30;96102.25;10218141;28;8390;-69
2023/05/04 03:40:36;;;;;;;;;;;;;;;19.69;43.49;96111.16;10227777;28;8456;-69
2023/05/04 03:45:37;;;;;;;;;;;;;;;19.70;43.39;96099.63;10238746;28;2130;-69
2023/05/04 03:50:37;;;;;;;;;;;;;;;19.68;43.40;96099.84;10231347;28;8207;-69
2023/05/04 03:55:37;;;;;;;;;;;;;;;19.69;43.47;96095.38;10238903;28;2025;-69
2023/05/04 04:00:38;;;;;;;;;;;;;;;19.69;43.31;96098.81;10213014;28;1969;-69
2023/05/04 04:05:38;;;;;;;;;;;;;;;19.67;43.24;96095.66;10235333;28;8520;-69
2023/05/04 04:10:38;;;;;;;;;;;;;;;19.68;43.43;96099.84;10227356;28;2152;-69
2023/05/04 04:15:39;;;;;;;;;;;;;;;19.71;43.27;96101.97;10229244;28;2211;-69
2023/05/04 04:20:39;;;;;;;;;;;;;;;19.77;43.17;96105.41;10236467;28;2088;-69
2023/05/04 04:25:40;;;;;;;;;;;;;;;19.81;43.26;96099.38;10219402;28;2144;-69
2023/05/04 04:30:41;;;;;;;;;;;;;;;19.88;43.28;96096.50;10229204;28;2059;-69
2023/05/04 04:35:41;;;;;;;;;;;;;;;19.96;43.10;96101.25;10235248;28;1948;-69
2023/05/04 04:40:41;;;;;;;;;;;;;;;20.03;43.22;96096.53;10234762;28;8531;-69
2023/05/04 04:45:43;;;;;;;;;;;;;;;20.11;42.82;96096.78;10237715;28;1987;-69
2023/05/04 04:50:44;;;;;;;;;;;;;;;20.17;42.95;96106.25;10226206;28;1969;-69
2023/05/04 04:55:45;;;;;;;;;;;;;;;20.21;42.95;96114.47;10232206;28;1912;-69
2023/05/04 05:00:46;;;;;;;;;;;;;;;20.26;42.70;96114.44;10228776;28;1973;-69
2023/05/04 05:05:46;;;;;;;;;;;;;;;20.31;42.88;96109.19;10232812;28;2080;-69
2023/05/04 05:10:46;;;;;;;;;;;;;;;20.35;42.58;96112.09;10233521;28;2087;-69
2023/05/04 05:15:47;;;;;;;;;;;;;;;20.40;42.56;96112.09;10234977;28;1988;-69
2023/05/04 05:20:47;;;;;;;;;;;;;;;20.41;42.65;96111.84;10234577;28;2000;-68
2023/05/04 05:25:47;;;;;;;;;;;;;;;20.42;42.43;96110.78;10241117;28;2148;-69
2023/05/04 05:30:50;;;;;;;;;;;;;;;20.45;42.64;96112.88;10242647;28;2103;-67
2023/05/04 05:35:51;;;;;;;;;;;;;;;20.47;42.34;96112.63;10238105;28;2136;-68
2023/05/04 05:40:52;;;;;;;;;;;;;;;20.47;42.36;96108.16;10244191;28;5528;-68
2023/05/04 05:45:52;;;;;;;;;;;;;;;20.51;42.45;96114.47;10226080;28;2251;-68
2023/05/04 05:50:52;;;;;;;;;;;;;;;20.53;42.39;96124.72;10233859;28;2080;-67
2023/05/04 05:55:53;;;;;;;;;;;;;;;20.54;42.36;96119.22;10239387;28;2249;-67
2023/05/04 06:00:53;;;;;;;;;;;;;;;20.56;42.08;96118.94;10233745;28;1948;-67
2023/05/04 06:05:53;;;;;;;;;;;;;;;20.57;42.05;96121.31;10237324;28;1929;-68
2023/05/04 06:10:55;;;;;;;;;;;;;;;20.57;42.13;96118.69;10230005;28;2294;-67
2023/05/04 06:15:55;;;;;;;;;;;;;;;20.62;42.41;96104.72;10239758;28;1977;-68
2023/05/04 06:20:59;;;;;;;;;;;;;;;20.64;42.20;96118.41;10240294;28;1958;-67
2023/05/04 06:25:59;;;;;;;;;;;;;;;20.64;42.13;96105.25;10232583;28;2211;-67
2023/05/04 06:31:00;;;;;;;;;;;;;;;20.63;42.41;96104.44;10233776;28;1981;-67
2023/05/04 06:36:00;;;;;;;;;;;;;;;20.66;42.40;96096.03;10234241;28;2041;-69
2023/05/04 06:41:01;;;;;;;;;;;;;;;20.66;42.39;96089.97;10235337;28;5541;-69
2023/05/04 06:46:04;;;;;;;;;;;;;;;20.66;42.22;96092.59;10237503;28;2006;-69
2023/05/04 06:51:04;;;;;;;;;;;;;;;20.65;42.43;96097.06;10237226;28;1922;-69
2023/05/04 06:56:06;;;;;;;;;;;;;;;20.67;42.31;96096.81;10224346;28;2175;-67
2023/05/04 07:01:07;;;;;;;;;;;;;;;20.65;42.47;96088.41;10235425;28;2016;-69
2023/05/04 07:06:08;;;;;;;;;;;;;;;20.66;42.09;96085.50;10235132;28;2183;-69
2023/05/04 07:11:09;;;;;;;;;;;;;;;20.65;42.43;96089.16;10229549;28;2107;-69
2023/05/04 07:16:09;;;;;;;;;;;;;;;20.64;42.31;96089.44;10237530;28;1973;-69
2023/05/04 07:21:10;;;;;;;;;;;;;;;20.62;42.34;96084.44;10235601;28;2135;-68
2023/05/04 07:26:10;;;;;;;;;;;;;;;20.57;42.44;96081.81;10247743;28;1929;-69
2023/05/04 07:31:11;;;;;;;;;;;;;;;20.57;42.41;96086.28;10238084;28;1969;-69
2023/05/04 07:36:12;;;;;;;;;;;;;;;20.53;42.57;96091.28;10232801;28;1922;-69
2023/05/04 07:41:12;;;;;;;;;;;;;;;20.51;42.39;96082.88;10235593;28;5740;-69
2023/05/04 07:46:12;;;;;;;;;;;;;;;20.51;42.50;96082.06;10236402;28;2131;-69
2023/05/04 07:51:13;;;;;;;;;;;;;;;20.48;42.46;96086.03;10238636;28;1965;-69
2023/05/04 07:56:13;;;;;;;;;;;;;;;20.45;42.55;96089.19;10238602;28;1961;-69
2023/05/04 08:01:14;;;;;;;;;;;;;;;20.43;42.58;96086.03;10233298;28;2108;-67
2023/05/04 08:06:14;;;;;;;;;;;;;;;20.42;42.64;96078.41;10238101;28;1946;-67
2023/05/04 08:11:14;;;;;;;;;;;;;;;20.40;42.62;96073.41;10226725;28;1967;-67
2023/05/04 08:16:15;;;;;;;;;;;;;;;20.38;42.69;96069.47;10235647;28;1961;-67
2023/05/04 08:21:15;;;;;;;;;;;;;;;20.38;42.78;96064.97;10246167;28;2027;-69
2023/05/04 08:26:15;;;;;;;;;;;;;;;20.36;42.67;96077.59;10238708;28;1902;-69
2023/05/04 08:31:17;;;;;;;;;;;;;;;20.35;42.86;96077.88;10213779;28;2114;-69
2023/05/04 08:36:17;;;;;;;;;;;;;;;20.33;43.04;96080.78;10239029;28;2092;-69
2023/05/04 08:41:18;;;;;;;;;;;;;;;20.32;42.80;96073.91;10228629;28;5481;-69
2023/05/04 08:46:18;;;;;;;;;;;;;;;20.31;42.88;96076.81;10235498;28;1989;-69
2023/05/04 08:51:18;;;;;;;;;;;;;;;20.30;42.86;96078.66;10231500;28;2027;-69
2023/05/04 08:56:18;;;;;;;;;;;;;;;20.28;43.16;96071.03;10235851;28;2242;-68
2023/05/04 09:01:19;;;;;;;;;;;;;;;20.28;43.07;96072.84;10235005;28;1977;-68
2023/05/04 09:06:19;;;;;;;;;;;;;;;20.27;43.00;96068.66;10229693;28;2123;-68
2023/05/04 09:11:20;;;;;;;;;;;;;;;20.26;43.15;96067.88;10229654;28;2144;-68
2023/05/04 09:16:20;;;;;;;;;;;;;;;20.25;43.23;96068.94;10231601;28;2115;-68
2023/05/04 09:21:27;;;;;;;;;;;;;;;20.25;43.20;96065.50;10232186;28;2124;-68
2023/05/04 09:26:28;;;;;;;;;;;;;;;20.25;43.27;96062.88;10232674;28;1981;-68
2023/05/04 09:31:28;;;;;;;;;;;;;;;20.25;43.33;96060.25;10234928;28;2219;-68
2023/05/04 09:36:29;;;;;;;;;;;;;;;20.24;43.42;96048.91;10233762;28;2040;-68
2023/05/04 09:41:33;;;;;;;;;;;;;;;20.23;43.27;96054.44;10235932;28;5743;-68
2023/05/04 09:46:33;;;;;;;;;;;;;;;20.23;43.46;96041.28;10234135;28;2134;-68
2023/05/04 09:51:33;;;;;;;;;;;;;;;20.23;43.28;96041.28;10231206;28;2333;-68
2023/05/04 09:56:40;;;;;;;;;;;;;;;20.23;43.48;96038.66;10229732;28;2032;-68
2023/05/04 10:01:40;;;;;;;;;;;;;;;20.21;43.27;96031.03;10230153;28;2153;-68
2023/05/04 10:06:42;;;;;;;;;;;;;;;20.21;43.45;96030.22;10237898;28;2140;-68
2023/05/04 10:11:42;;;;;;;;;;;;;;;20.20;43.44;96026.00;10238197;28;1982;-68
2023/05/04 10:16:45;;;;;;;;;;;;;;;20.20;43.33;96021.53;10235411;28;2059;-68
2023/05/04 10:21:57;;;;;;;;;;;;;;;20.20;43.53;96018.91;10244929;28;2135;-68
2023/05/04 10:26:58;;;;;;;;;;;;;;;20.20;43.53;96016.28;10235623;28;2000;-68
2023/05/04 10:31:58;;;;;;;;;;;;;;;20.19;43.52;96017.34;10236706;28;1981;-68
2023/05/04 10:36:59;;;;;;;;;;;;;;;20.19;43.61;96012.09;10224835;28;1944;-68
2023/05/04 10:42:00;;;;;;;;;;;;;;;20.20;43.68;96004.94;10239630;28;5597;-69
2023/05/04 10:47:04;;;;;;;;;;;;;;;20.19;43.58;96001.56;10242920;28;2067;-68
2023/05/04 10:52:10;;;;;;;;;;;;;;;20.20;43.90;96010.22;10242050;28;1915;-68
2023/05/04 10:57:12;;;;;;;;;;;;;;;20.20;43.75;96011.00;10248711;28;1453;-69
2023/05/04 11:02:20;;;;;;;;;;;;;;;20.20;43.63;96010.22;10244479;28;1899;-68
2023/05/04 11:07:30;;;;;;;;;;;;;;;20.20;43.96;95999.69;10235852;28;2304;-68
2023/05/04 11:12:31;;;;;;;;;;;;;;;20.21;43.87;95991.56;10233454;28;2116;-68
2023/05/04 11:17:31;;;;;;;;;;;;;;;20.21;44.02;95990.75;10237703;28;2054;-68
2023/05/04 11:22:32;;;;;;;;;;;;;;;20.21;43.80;95982.84;10224583;28;2078;-68
2023/05/04 11:27:32;;;;;;;;;;;;;;;20.22;43.86;95981.78;10231779;28;1993;-68
2023/05/04 11:32:32;;;;;;;;;;;;;;;20.21;44.04;95981.03;10235102;28;1997;-68
2023/05/04 11:37:37;;;;;;;;;;;;;;;20.21;43.93;95967.06;10239401;28;2115;-68
2023/05/04 11:42:38;;;;;;;;;;;;;;;20.22;44.09;95963.38;10239347;28;5552;-69
2023/05/04 11:47:40;;;;;;;;;;;;;;;20.22;43.94;95960.72;10234496;28;2059;-68
2023/05/04 11:52:40;;;;;;;;;;;;;;;20.22;44.02;95944.94;10226287;28;2207;-69
2023/05/04 11:57:41;;;;;;;;;;;;;;;20.22;44.07;95948.38;10232199;28;1977;-69
2023/05/04 12:02:41;;;;;;;;;;;;;;;20.23;44.09;95936.78;10234639;28;2242;-69
2023/05/04 12:07:41;;;;;;;;;;;;;;;20.23;44.05;95930.75;10234340;28;1918;-68
2023/05/04 12:12:41;;;;;;;;;;;;;;;20.22;44.27;95923.88;10234895;28;2151;-68
2023/05/04 12:17:42;;;;;;;;;;;;;;;20.23;44.13;95913.09;10231281;28;2186;-68
2023/05/04 12:22:42;;;;;;;;;;;;;;;20.25;44.08;95918.09;10233817;28;2012;-69
2023/05/04 12:27:42;;;;;;;;;;;;;;;20.25;44.45;95908.38;10227551;28;2087;-68
2023/05/04 12:32:43;;;;;;;;;;;;;;;20.27;44.12;95903.63;10237089;28;1975;-69
2023/05/04 12:37:43;;;;;;;;;;;;;;;20.25;44.72;95905.72;10238920;28;1964;-69
2023/05/04 12:42:43;;;;;;;;;;;;;;;20.25;44.33;95910.19;10240304;28;5312;-69
2023/05/04 12:47:44;;;;;;;;;;;;;;;20.23;43.74;95896.50;10231514;28;1958;-69
2023/05/04 12:52:44;;;;;;;;;;;;;;;20.21;43.25;95894.16;10233315;28;1946;-69
2023/05/04 12:57:44;;;;;;;;;;;;;;;20.20;42.39;95897.03;10230071;28;2072;-69
2023/05/04 13:02:45;;;;;;;;;;;;;;;20.18;41.49;95896.50;10234250;28;1930;-69
2023/05/04 13:07:45;;;;;;;;;;;;;;;20.16;41.17;95885.44;10237572;28;1947;-68
2023/05/04 13:12:46;;;;;;;;;;;;;;;20.15;41.36;95887.28;10240632;28;1977;-68
2023/05/04 13:17:46;;;;;;;;;;;;;;;20.16;41.50;95875.72;10233761;28;2062;-69
2023/05/04 13:22:46;;;;;;;;;;;;;;;20.14;41.69;95872.56;10247745;28;2197;-68
2023/05/04 13:27:47;;;;;;;;;;;;;;;20.14;41.72;95869.13;10246458;28;1994;-68
2023/05/04 13:32:47;;;;;;;;;;;;;;;20.15;41.97;95862.81;10219980;28;2047;-71
2023/05/04 13:37:48;;;;;;;;;;;;;;;20.14;41.82;95854.13;10237687;28;2126;-71
2023/05/04 13:42:48;;;;;;;;;;;;;;;20.16;41.63;95859.13;10238099;28;5534;-70
2023/05/04 13:47:49;;;;;;;;;;;;;;;20.17;41.75;95844.91;10243672;28;1971;-70
2023/05/04 13:52:49;;;;;;;;;;;;;;;20.21;41.20;95838.09;10242166;28;1962;-71
2023/05/04 13:57:51;;;;;;;;;;;;;;;20.22;41.43;95827.28;10240182;28;1973;-72
2023/05/04 14:02:51;;;;;;;;;;;;;;;20.25;41.16;95821.50;10242052;28;2061;-72
2023/05/04 14:07:51;;;;;;;;;;;;;;;20.29;41.43;95829.63;10234849;28;1984;-71
2023/05/04 14:12:52;;;;;;;;;;;;;;;20.33;41.22;95822.78;10239476;28;2038;-73
2023/05/04 14:17:52;;;;;;;;;;;;;;;20.37;41.17;95815.91;10246123;28;1977;-74
2023/05/04 14:22:52;;;;;;;;;;;;;;;20.41;41.16;95811.69;10239531;28;1966;-75
2023/05/04 14:27:52;;;;;;;;;;;;;;;20.47;41.25;95810.59;10243291;28;1973;-69
2023/05/04 14:32:53;;;;;;;;;;;;;;;20.50;41.30;95798.75;10237713;28;2123;-72
2023/05/04 14:37:54;;;;;;;;;;;;;;;20.52;41.21;95807.94;10242080;28;2049;-67
2023/05/04 14:42:56;;;;;;;;;;;;;;;20.55;41.34;95804.75;10237204;28;5558;-68
2023/05/04 14:47:56;;;;;;;;;;;;;;;20.59;41.48;95799.72;10246073;28;1952;-68
2023/05/04 14:52:56;;;;;;;;;;;;;;;20.60;41.67;95802.09;10241858;28;2104;-68
2023/05/04 14:57:57;;;;;;;;;;;;;;;20.62;41.90;95802.63;10238489;28;2038;-68
2023/05/04 15:02:57;;;;;;;;;;;;;;;20.65;42.00;95801.28;10241076;28;1977;-68
2023/05/04 15:07:57;;;;;;;;;;;;;;;20.67;42.10;95796.53;10238233;28;2061;-68
2023/05/04 15:12:58;;;;;;;;;;;;;;;20.68;42.37;95798.91;10238243;28;2210;-68
2023/05/04 15:17:58;;;;;;;;;;;;;;;20.69;42.50;95808.34;10235791;28;2179;-68
2023/05/04 15:22:59;;;;;;;;;;;;;;;20.69;42.37;95803.09;10225510;28;2196;-68
2023/05/04 15:27:59;;;;;;;;;;;;;;;20.69;42.46;95792.56;10238620;28;2072;-69
2023/05/04 15:33:00;;;;;;;;;;;;;;;20.70;42.79;95790.72;10235619;28;2103;-70
2023/05/04 15:38:00;;;;;;;;;;;;;;;20.68;42.73;95775.19;10236890;28;1957;-70
2023/05/04 15:43:01;;;;;;;;;;;;;;;20.70;43.02;95780.19;10240281;28;5582;-70
2023/05/04 15:48:01;;;;;;;;;;;;;;;20.70;43.27;95785.44;10249442;28;1969;-70
2023/05/04 15:53:01;;;;;;;;;;;;;;;20.69;43.35;95783.88;10244721;28;2218;-70
2023/05/04 15:58:02;;;;;;;;;;;;;;;20.68;43.58;95783.09;10245477;28;2048;-70
2023/05/04 16:03:02;;;;;;;;;;;;;;;20.69;43.24;95778.63;10240465;28;2126;-70
2023/05/04 16:08:02;;;;;;;;;;;;;;;20.67;43.48;95780.75;10246447;28;2193;-70
2023/05/04 16:13:04;;;;;;;;;;;;;;;20.66;43.62;95773.88;10248209;28;1996;-70
2023/05/04 16:18:04;;;;;;;;;;;;;;;20.66;43.74;95773.88;10261872;28;1966;-71
2023/05/04 16:23:04;;;;;;;;;;;;;;;20.65;43.70;95769.69;10252973;28;1968;-70
2023/05/04 16:28:05;;;;;;;;;;;;;;;20.64;43.57;95761.00;10251264;28;1938;-70
2023/05/04 16:33:05;;;;;;;;;;;;;;;20.63;43.87;95756.78;10251761;28;1923;-70
2023/05/04 16:38:05;;;;;;;;;;;;;;;20.64;43.97;95765.47;10257336;28;1982;-70
2023/05/04 16:43:06;;;;;;;;;;;;;;;20.62;44.02;95757.84;10247109;28;5552;-70
2023/05/04 16:48:06;;;;;;;;;;;;;;;20.61;43.87;95766.78;10255064;28;1954;-70
2023/05/04 16:53:07;;;;;;;;;;;;;;;20.59;43.95;95761.00;10255198;28;1938;-70
2023/05/04 16:58:07;;;;;;;;;;;;;;;20.58;44.14;95751.56;10250657;28;1985;-70
2023/05/04 17:03:07;;;;;;;;;;;;;;;20.58;44.13;95753.41;10241536;28;2085;-70
2023/05/04 17:08:09;;;;;;;;;;;;;;;20.57;44.12;95760.50;10245747;28;1888;-70
2023/05/04 17:13:09;;;;;;;;;;;;;;;20.56;44.17;95758.16;10217333;28;1910;-70
2023/05/04 17:18:10;;;;;;;;;;;;;;;20.55;44.10;95746.81;10235725;28;1794;-70
2023/05/04 17:23:10;;;;;;;;;;;;;;;20.55;44.11;95752.09;10228674;28;1865;-70
2023/05/04 17:28:10;;;;;;;;;;;;;;;20.53;44.22;95748.94;10244104;28;1950;-70
2023/05/04 17:33:11;;;;;;;;;;;;;;;20.52;44.21;95752.66;10251513;28;2237;-70
2023/05/04 17:38:11;;;;;;;;;;;;;;;20.53;44.35;95758.69;10251349;28;1898;-71
2023/05/04 17:43:11;;;;;;;;;;;;;;;20.52;44.11;95757.13;10254973;28;5645;-69
2023/05/04 17:48:11;;;;;;;;;;;;;;;20.50;44.34;95746.88;10258938;28;1999;-70
2023/05/04 17:53:12;;;;;;;;;;;;;;;20.51;44.27;95766.84;10250709;28;1906;-67
2023/05/04 17:58:12;;;;;;;;;;;;;;;20.49;44.16;95774.25;10249052;28;2006;-67
2023/05/04 18:03:12;;;;;;;;;;;;;;;20.48;44.18;95770.06;10271440;28;1868;-66
2023/05/04 18:08:12;;;;;;;;;;;;;;;20.47;44.19;95771.09;10267320;28;1840;-67
2023/05/04 18:13:13;;;;;;;;;;;;;;;20.49;44.21;95771.63;10242967;28;1977;-67
2023/05/04 18:18:13;;;;;;;;;;;;;;;20.47;44.26;95771.09;10248107;28;1973;-66
2023/05/04 18:23:13;;;;;;;;;;;;;;;20.48;44.47;95774.53;10253934;28;1860;-66
2023/05/04 18:28:13;;;;;;;;;;;;;;;20.47;44.17;95786.91;10257157;28;1884;-66
2023/05/04 18:33:14;;;;;;;;;;;;;;;20.45;44.26;95788.22;10260113;28;1942;-66
2023/05/04 18:38:15;;;;;;;;;;;;;;;20.47;44.46;95796.63;10257309;28;1851;-66
2023/05/04 18:43:15;;;;;;;;;;;;;;;20.47;44.12;95791.38;10256791;28;5614;-68
2023/05/04 18:48:15;;;;;;;;;;;;;;;20.46;44.28;95801.13;10257450;28;1864;-67
2023/05/04 18:53:16;;;;;;;;;;;;;;;20.47;44.35;95805.31;10248632;28;2108;-68
2023/05/04 18:58:16;;;;;;;;;;;;;;;20.46;44.00;95806.41;10238465;28;1869;-67
2023/05/04 19:03:16;;;;;;;;;;;;;;;20.46;44.08;95806.41;10249698;28;2005;-67
2023/05/04 19:08:18;;;;;;;;;;;;;;;20.47;44.26;95818.50;10235000;28;1824;-68
2023/05/04 19:13:19;;;;;;;;;;;;;;;20.47;44.26;95823.75;10239146;28;2043;-68
2023/05/04 19:18:20;;;;;;;;;;;;;;;20.49;44.21;95828.75;10228745;28;1801;-71
2023/05/04 19:23:20;;;;;;;;;;;;;;;20.49;43.98;95829.53;10243835;28;1877;-71
2023/05/04 19:28:21;;;;;;;;;;;;;;;20.48;44.18;95825.34;10238141;28;1915;-71
2023/05/04 19:33:21;;;;;;;;;;;;;;;20.48;44.07;95825.34;10238939;28;1943;-71
2023/05/04 19:38:21;;;;;;;;;;;;;;;20.48;44.01;95827.19;10236732;28;1852;-70
2023/05/04 19:43:22;;;;;;;;;;;;;;;20.45;44.04;95825.88;10226732;28;5542;-71
2023/05/04 19:48:22;;;;;;;;;;;;;;;20.46;44.31;95835.38;10232862;28;2001;-70
2023/05/04 19:53:22;;;;;;;;;;;;;;;20.44;44.13;95829.59;10221118;28;1906;-71
2023/05/04 19:58:27;;;;;;;;;;;;;;;20.43;44.12;95828.00;10234359;28;2031;-71
2023/05/04 20:03:27;;;;;;;;;;;;;;;20.43;43.96;95830.63;10237774;28;2058;-71
2023/05/04 20:08:27;;;;;;;;;;;;;;;20.43;44.07;95827.19;10232722;28;1849;-70
2023/05/04 20:13:27;;;;;;;;;;;;;;;20.44;44.00;95829.59;10209790;28;2064;-71
2023/05/04 20:18:28;;;;;;;;;;;;;;;20.42;43.67;95825.63;10201231;28;1921;-70
2023/05/04 20:23:29;;;;;;;;;;;;;;;20.41;43.96;95822.22;10226619;28;1889;-69
2023/05/04 20:28:31;;;;;;;;;;;;;;;20.40;43.99;95825.91;10235749;28;1933;-69
2023/05/04 20:33:31;;;;;;;;;;;;;;;20.41;44.13;95826.69;10241534;28;1865;-70
2023/05/04 20:38:31;;;;;;;;;;;;;;;20.40;44.03;95823.28;10239778;28;1884;-70
2023/05/04 20:43:32;;;;;;;;;;;;;;;20.40;43.98;95819.84;10236684;28;5692;-70
2023/05/04 20:48:34;;;;;;;;;;;;;;;20.40;43.94;95825.13;10235774;28;1965;-64
2023/05/04 20:53:37;;;;;;;;;;;;;;;20.39;43.79;95824.31;10235240;28;1985;-66
2023/05/04 20:58:38;;;;;;;;;;;;;;;20.36;43.69;95819.59;10237853;28;1864;-66
2023/05/04 21:03:38;;;;;;;;;;;;;;;20.36;43.86;95816.94;10242814;28;2028;-66
2023/05/04 21:08:38;;;;;;;;;;;;;;;20.34;44.01;95813.81;10237802;28;2016;-66
2023/05/04 21:13:38;;;;;;;;;;;;;;;20.34;43.90;95819.06;10234430;28;1876;-67
2023/05/04 21:18:39;;;;;;;;;;;;;;;20.33;43.75;95820.13;10234712;28;1864;-67
2023/05/04 21:23:39;;;;;;;;;;;;;;;20.34;45.38;95818.31;10234673;28;1921;-68
2023/05/04 21:28:39;;;;;;;;;;;;;;;20.38;46.86;95806.94;10232391;28;1977;-69
2023/05/04 21:33:40;;;;;;;;;;;;;;;20.40;47.41;95799.59;10233639;28;2123;-69
2023/05/04 21:38:40;;;;;;;;;;;;;;;20.43;46.95;95808.78;10229201;28;1913;-70
2023/05/04 21:43:41;;;;;;;;;;;;;;;20.42;46.51;95805.38;10228671;28;5734;-69
2023/05/04 21:48:41;;;;;;;;;;;;;;;20.40;46.49;95802.22;10233308;28;2005;-69
2023/05/04 21:53:42;;;;;;;;;;;;;;;20.40;46.09;95802.22;10236745;28;1832;-69
2023/05/04 21:58:42;;;;;;;;;;;;;;;20.39;46.25;95805.09;10239168;28;1870;-69
2023/05/04 22:03:43;;;;;;;;;;;;;;;20.38;46.12;95799.03;10247772;28;1513;-67
2023/05/04 22:08:43;;;;;;;;;;;;;;;20.38;45.98;95798.28;10256735;28;1903;-69
2023/05/04 22:13:44;;;;;;;;;;;;;;;20.38;46.10;95796.41;10245024;28;1915;-69
2023/05/04 22:18:44;;;;;;;;;;;;;;;20.36;45.81;95793.25;10240278;28;2038;-68
2023/05/04 22:23:44;;;;;;;;;;;;;;;20.35;45.87;95781.16;10242358;28;1940;-69
2023/05/04 22:28:45;;;;;;;;;;;;;;;20.35;45.69;95785.63;10243423;28;2005;-67
2023/05/04 22:33:45;;;;;;;;;;;;;;;20.35;45.53;95786.44;10241106;28;1946;-69
2023/05/04 22:38:46;;;;;;;;;;;;;;;20.32;45.63;95781.69;10240070;28;2202;-69
2023/05/04 22:43:46;;;;;;;;;;;;;;;20.33;45.76;95785.91;10240292;28;5048;-68
2023/05/04 22:48:47;;;;;;;;;;;;;;;20.32;45.29;95788.84;10245722;28;1950;-68
2023/05/04 22:53:47;;;;;;;;;;;;;;;20.31;45.42;95793.31;10240106;28;2134;-69
2023/05/04 22:58:48;;;;;;;;;;;;;;;20.30;45.53;95786.44;10236709;28;1919;-69
2023/05/04 23:03:49;;;;;;;;;;;;;;;20.30;45.67;95796.22;10246934;28;1837;-69
2023/05/04 23:08:49;;;;;;;;;;;;;;;20.28;45.42;95785.94;10240351;28;1915;-69
2023/05/04 23:13:50;;;;;;;;;;;;;;;20.28;45.28;95794.63;10237723;28;2118;-69
2023/05/04 23:18:51;;;;;;;;;;;;;;;20.28;45.31;95799.88;10237447;28;1967;-69
2023/05/04 23:23:52;;;;;;;;;;;;;;;20.27;45.38;95798.31;10239294;28;1921;-69
2023/05/04 23:28:52;;;;;;;;;;;;;;;20.26;45.30;95802.00;10236029;28;2126;-69
2023/05/04 23:33:52;;;;;;;;;;;;;;;20.26;45.16;95790.69;10233822;28;2155;-69
2023/05/04 23:38:53;;;;;;;;;;;;;;;20.25;45.21;95799.66;10231822;28;1945;-69
2023/05/04 23:43:53;;;;;;;;;;;;;;;20.25;45.23;95800.44;10231575;28;5258;-69
2023/05/04 23:48:53;;;;;;;;;;;;;;;20.24;45.26;95787.53;10233760;28;2044;-69
2023/05/04 23:53:54;;;;;;;;;;;;;;;20.23;45.06;95792.03;10236031;28;1965;-70
2023/05/04 23:58:55;;;;;;;;;;;;;;;20.23;45.22;95785.97;10231720;28;1973;-69
